sensor_id;sensor_type;location;lat;lon;timestamp;P1;durP1;ratioP1;P2;durP2;ratioP2
71562;SDS011;59391;52.504;13.438;2023-12-28T00:01:28;17.80;;;8.60;;
71562;SDS011;59391;52.504;13.438;2023-12-28T00:03:53;16.17;;;7.93;;
71562;SDS011;59391;52.504;13.438;2023-12-28T00:06:19;12.93;;;7.97;;
71562;SDS011;59391;52.504;13.438;2023-12-28T00:08:44;13.47;;;7.83;;
71562;SDS011;59391;52.504;13.438;2023-12-28T00:11:10;14.60;;;7.90;;
71562;SDS011;59391;52.504;13.438;2023-12-28T00:13:36;15.47;;;8.13;;
71562;SDS011;59391;52.504;13.438;2023-12-28T00:16:01;17.83;;;10.05;;
71562;SDS011;59391;52.504;13.438;2023-12-28T00:18:27;14.53;;;8.90;;
71562;SDS011;59391;52.504;13.438;2023-12-28T00:20:53;14.00;;;9.00;;
71562;SDS011;59391;52.504;13.438;2023-12-28T00:23:19;14.15;;;7.65;;
71562;SDS011;59391;52.504;13.438;2023-12-28T00:25:47;14.05;;;8.18;;
71562;SDS011;59391;52.504;13.438;2023-12-28T00:28:12;13.67;;;7.57;;
71562;SDS011;59391;52.504;13.438;2023-12-28T00:30:38;12.23;;;7.85;;
71562;SDS011;59391;52.504;13.438;2023-12-28T00:33:04;15.90;;;8.15;;
71562;SDS011;59391;52.504;13.438;2023-12-28T00:35:30;12.50;;;6.90;;
71562;SDS011;59391;52.504;13.438;2023-12-28T00:37:55;12.13;;;6.93;;
71562;SDS011;59391;52.504;13.438;2023-12-28T00:40:21;11.53;;;6.93;;
71562;SDS011;59391;52.504;13.438;2023-12-28T00:42:47;16.38;;;8.00;;
71562;SDS011;59391;52.504;13.438;2023-12-28T00:45:13;37.97;;;14.85;;
71562;SDS011;59391;52.504;13.438;2023-12-28T00:47:39;14.40;;;7.50;;
71562;SDS011;59391;52.504;13.438;2023-12-28T00:50:07;11.93;;;7.65;;
71562;SDS011;59391;52.504;13.438;2023-12-28T00:52:36;15.40;;;7.75;;
71562;SDS011;59391;52.504;13.438;2023-12-28T00:55:02;11.75;;;7.25;;
71562;SDS011;59391;52.504;13.438;2023-12-28T00:57:29;11.83;;;6.30;;
71562;SDS011;59391;52.504;13.438;2023-12-28T00:59:54;11.25;;;6.75;;
71562;SDS011;59391;52.504;13.438;2023-12-28T01:02:20;9.07;;;6.23;;
71562;SDS011;59391;52.504;13.438;2023-12-28T01:04:46;11.63;;;6.82;;
71562;SDS011;59391;52.504;13.438;2023-12-28T01:07:11;12.50;;;8.17;;
71562;SDS011;59391;52.504;13.438;2023-12-28T01:09:37;17.75;;;10.80;;
71562;SDS011;59391;52.504;13.438;2023-12-28T01:12:02;9.07;;;6.20;;
71562;SDS011;59391;52.504;13.438;2023-12-28T01:14:30;12.43;;;7.55;;
71562;SDS011;59391;52.504;13.438;2023-12-28T01:16:55;10.13;;;5.93;;
71562;SDS011;59391;52.504;13.438;2023-12-28T01:19:21;12.75;;;6.80;;
71562;SDS011;59391;52.504;13.438;2023-12-28T01:21:48;8.60;;;5.33;;
71562;SDS011;59391;52.504;13.438;2023-12-28T01:24:14;10.63;;;6.10;;
71562;SDS011;59391;52.504;13.438;2023-12-28T01:26:40;10.70;;;6.63;;
71562;SDS011;59391;52.504;13.438;2023-12-28T01:29:06;11.03;;;6.00;;
71562;SDS011;59391;52.504;13.438;2023-12-28T01:31:31;10.23;;;6.07;;
71562;SDS011;59391;52.504;13.438;2023-12-28T01:33:57;11.30;;;6.00;;
71562;SDS011;59391;52.504;13.438;2023-12-28T01:36:23;9.93;;;5.65;;
71562;SDS011;59391;52.504;13.438;2023-12-28T01:38:48;13.03;;;7.67;;
71562;SDS011;59391;52.504;13.438;2023-12-28T01:41:14;10.50;;;6.50;;
71562;SDS011;59391;52.504;13.438;2023-12-28T01:43:40;11.37;;;5.60;;
71562;SDS011;59391;52.504;13.438;2023-12-28T01:46:07;11.30;;;5.88;;
71562;SDS011;59391;52.504;13.438;2023-12-28T01:48:40;9.40;;;5.60;;
71562;SDS011;59391;52.504;13.438;2023-12-28T01:51:07;10.50;;;5.93;;
71562;SDS011;59391;52.504;13.438;2023-12-28T01:53:33;8.87;;;5.67;;
71562;SDS011;59391;52.504;13.438;2023-12-28T01:55:59;9.20;;;5.85;;
71562;SDS011;59391;52.504;13.438;2023-12-28T01:58:25;10.27;;;6.10;;
71562;SDS011;59391;52.504;13.438;2023-12-28T02:00:55;8.10;;;5.40;;
71562;SDS011;59391;52.504;13.438;2023-12-28T02:03:22;10.82;;;5.80;;
71562;SDS011;59391;52.504;13.438;2023-12-28T02:05:47;10.38;;;5.68;;
71562;SDS011;59391;52.504;13.438;2023-12-28T02:08:13;9.20;;;5.68;;
71562;SDS011;59391;52.504;13.438;2023-12-28T02:10:39;10.20;;;5.55;;
71562;SDS011;59391;52.504;13.438;2023-12-28T02:13:05;9.40;;;5.55;;
71562;SDS011;59391;52.504;13.438;2023-12-28T02:15:30;8.75;;;5.22;;
71562;SDS011;59391;52.504;13.438;2023-12-28T02:18:02;7.93;;;5.63;;
71562;SDS011;59391;52.504;13.438;2023-12-28T02:20:36;6.97;;;4.18;;
71562;SDS011;59391;52.504;13.438;2023-12-28T02:23:05;7.82;;;4.68;;
71562;SDS011;59391;52.504;13.438;2023-12-28T02:25:32;7.60;;;4.53;;
71562;SDS011;59391;52.504;13.438;2023-12-28T02:27:57;7.60;;;4.40;;
71562;SDS011;59391;52.504;13.438;2023-12-28T02:30:24;8.18;;;4.60;;
71562;SDS011;59391;52.504;13.438;2023-12-28T02:33:00;7.90;;;4.68;;
71562;SDS011;59391;52.504;13.438;2023-12-28T02:36:04;6.53;;;4.23;;
71562;SDS011;59391;52.504;13.438;2023-12-28T02:38:36;6.30;;;3.75;;
71562;SDS011;59391;52.504;13.438;2023-12-28T02:41:04;6.88;;;4.00;;
71562;SDS011;59391;52.504;13.438;2023-12-28T02:43:30;6.47;;;4.28;;
71562;SDS011;59391;52.504;13.438;2023-12-28T02:45:58;6.68;;;4.20;;
71562;SDS011;59391;52.504;13.438;2023-12-28T02:48:24;7.60;;;4.47;;
71562;SDS011;59391;52.504;13.438;2023-12-28T02:50:50;7.32;;;3.80;;
71562;SDS011;59391;52.504;13.438;2023-12-28T02:53:17;6.50;;;4.40;;
71562;SDS011;59391;52.504;13.438;2023-12-28T02:55:42;6.90;;;4.37;;
71562;SDS011;59391;52.504;13.438;2023-12-28T02:58:08;5.60;;;3.97;;
71562;SDS011;59391;52.504;13.438;2023-12-28T03:00:33;5.37;;;3.80;;
71562;SDS011;59391;52.504;13.438;2023-12-28T03:02:59;5.60;;;3.53;;
71562;SDS011;59391;52.504;13.438;2023-12-28T03:05:25;6.13;;;4.13;;
71562;SDS011;59391;52.504;13.438;2023-12-28T03:07:50;7.10;;;4.60;;
71562;SDS011;59391;52.504;13.438;2023-12-28T03:10:16;7.22;;;4.07;;
71562;SDS011;59391;52.504;13.438;2023-12-28T03:12:41;6.83;;;4.07;;
71562;SDS011;59391;52.504;13.438;2023-12-28T03:15:07;6.20;;;3.90;;
71562;SDS011;59391;52.504;13.438;2023-12-28T03:17:33;6.37;;;3.80;;
71562;SDS011;59391;52.504;13.438;2023-12-28T03:20:01;6.07;;;3.40;;
71562;SDS011;59391;52.504;13.438;2023-12-28T03:22:27;7.22;;;4.20;;
71562;SDS011;59391;52.504;13.438;2023-12-28T03:24:53;5.80;;;3.40;;
71562;SDS011;59391;52.504;13.438;2023-12-28T03:27:18;5.97;;;3.97;;
71562;SDS011;59391;52.504;13.438;2023-12-28T03:29:44;5.50;;;3.27;;
71562;SDS011;59391;52.504;13.438;2023-12-28T03:32:10;5.68;;;3.40;;
71562;SDS011;59391;52.504;13.438;2023-12-28T03:34:36;5.63;;;3.60;;
71562;SDS011;59391;52.504;13.438;2023-12-28T03:37:01;6.60;;;3.33;;
71562;SDS011;59391;52.504;13.438;2023-12-28T03:39:27;5.33;;;3.20;;
71562;SDS011;59391;52.504;13.438;2023-12-28T03:41:53;5.45;;;3.75;;
71562;SDS011;59391;52.504;13.438;2023-12-28T03:44:19;5.47;;;3.67;;
71562;SDS011;59391;52.504;13.438;2023-12-28T03:46:50;5.25;;;3.42;;
71562;SDS011;59391;52.504;13.438;2023-12-28T03:49:16;6.22;;;3.40;;
71562;SDS011;59391;52.504;13.438;2023-12-28T03:51:46;5.20;;;3.50;;
71562;SDS011;59391;52.504;13.438;2023-12-28T03:54:18;6.35;;;3.60;;
71562;SDS011;59391;52.504;13.438;2023-12-28T03:56:45;5.82;;;3.80;;
71562;SDS011;59391;52.504;13.438;2023-12-28T03:59:11;5.53;;;3.20;;
71562;SDS011;59391;52.504;13.438;2023-12-28T04:01:38;5.57;;;3.30;;
71562;SDS011;59391;52.504;13.438;2023-12-28T04:04:03;7.10;;;4.07;;
71562;SDS011;59391;52.504;13.438;2023-12-28T04:06:29;5.95;;;3.40;;
71562;SDS011;59391;52.504;13.438;2023-12-28T04:08:55;5.60;;;3.50;;
71562;SDS011;59391;52.504;13.438;2023-12-28T04:11:21;5.43;;;3.47;;
71562;SDS011;59391;52.504;13.438;2023-12-28T04:13:47;6.55;;;3.70;;
71562;SDS011;59391;52.504;13.438;2023-12-28T04:16:13;5.43;;;3.00;;
71562;SDS011;59391;52.504;13.438;2023-12-28T04:18:39;5.53;;;3.78;;
71562;SDS011;59391;52.504;13.438;2023-12-28T04:21:09;5.10;;;3.40;;
71562;SDS011;59391;52.504;13.438;2023-12-28T04:23:36;5.13;;;3.23;;
71562;SDS011;59391;52.504;13.438;2023-12-28T04:26:02;5.53;;;3.30;;
71562;SDS011;59391;52.504;13.438;2023-12-28T04:28:28;4.93;;;3.28;;
71562;SDS011;59391;52.504;13.438;2023-12-28T04:30:54;5.47;;;3.63;;
71562;SDS011;59391;52.504;13.438;2023-12-28T04:33:19;6.10;;;3.38;;
71562;SDS011;59391;52.504;13.438;2023-12-28T04:35:45;5.30;;;3.40;;
71562;SDS011;59391;52.504;13.438;2023-12-28T04:38:11;4.72;;;3.45;;
71562;SDS011;59391;52.504;13.438;2023-12-28T04:40:37;5.13;;;3.60;;
71562;SDS011;59391;52.504;13.438;2023-12-28T04:43:03;5.33;;;3.40;;
71562;SDS011;59391;52.504;13.438;2023-12-28T04:45:29;5.85;;;3.53;;
71562;SDS011;59391;52.504;13.438;2023-12-28T04:47:55;5.53;;;3.47;;
71562;SDS011;59391;52.504;13.438;2023-12-28T04:50:20;12.77;;;6.65;;
71562;SDS011;59391;52.504;13.438;2023-12-28T04:52:46;10.97;;;6.13;;
71562;SDS011;59391;52.504;13.438;2023-12-28T04:55:12;10.57;;;6.40;;
71562;SDS011;59391;52.504;13.438;2023-12-28T04:57:37;7.55;;;3.78;;
71562;SDS011;59391;52.504;13.438;2023-12-28T05:00:03;8.23;;;4.87;;
71562;SDS011;59391;52.504;13.438;2023-12-28T05:02:30;6.53;;;3.70;;
71562;SDS011;59391;52.504;13.438;2023-12-28T05:04:55;12.23;;;6.17;;
71562;SDS011;59391;52.504;13.438;2023-12-28T05:07:21;7.80;;;4.38;;
71562;SDS011;59391;52.504;13.438;2023-12-28T05:09:46;7.17;;;4.23;;
71562;SDS011;59391;52.504;13.438;2023-12-28T05:12:12;6.95;;;3.83;;
71562;SDS011;59391;52.504;13.438;2023-12-28T05:14:38;5.50;;;3.57;;
71562;SDS011;59391;52.504;13.438;2023-12-28T05:17:03;5.53;;;3.53;;
71562;SDS011;59391;52.504;13.438;2023-12-28T05:19:29;6.32;;;3.83;;
71562;SDS011;59391;52.504;13.438;2023-12-28T05:21:55;7.27;;;3.77;;
71562;SDS011;59391;52.504;13.438;2023-12-28T05:24:20;6.30;;;3.65;;
71562;SDS011;59391;52.504;13.438;2023-12-28T05:26:46;18.83;;;9.43;;
71562;SDS011;59391;52.504;13.438;2023-12-28T05:29:12;11.93;;;6.53;;
71562;SDS011;59391;52.504;13.438;2023-12-28T05:31:37;5.67;;;3.40;;
71562;SDS011;59391;52.504;13.438;2023-12-28T05:34:03;5.23;;;3.90;;
71562;SDS011;59391;52.504;13.438;2023-12-28T05:36:30;5.70;;;3.78;;
71562;SDS011;59391;52.504;13.438;2023-12-28T05:38:55;7.15;;;4.10;;
71562;SDS011;59391;52.504;13.438;2023-12-28T05:41:21;4.75;;;3.20;;
71562;SDS011;59391;52.504;13.438;2023-12-28T05:43:47;6.00;;;3.50;;
71562;SDS011;59391;52.504;13.438;2023-12-28T05:46:12;5.82;;;3.60;;
71562;SDS011;59391;52.504;13.438;2023-12-28T05:48:38;5.00;;;3.22;;
71562;SDS011;59391;52.504;13.438;2023-12-28T05:51:04;5.30;;;3.20;;
71562;SDS011;59391;52.504;13.438;2023-12-28T05:53:30;5.07;;;3.20;;
71562;SDS011;59391;52.504;13.438;2023-12-28T05:55:55;5.80;;;3.58;;
71562;SDS011;59391;52.504;13.438;2023-12-28T05:58:27;5.38;;;3.30;;
71562;SDS011;59391;52.504;13.438;2023-12-28T06:00:53;4.87;;;3.40;;
71562;SDS011;59391;52.504;13.438;2023-12-28T06:03:19;6.03;;;3.35;;
71562;SDS011;59391;52.504;13.438;2023-12-28T06:05:45;5.20;;;3.10;;
71562;SDS011;59391;52.504;13.438;2023-12-28T06:08:10;5.20;;;3.30;;
71562;SDS011;59391;52.504;13.438;2023-12-28T06:10:36;5.70;;;3.40;;
71562;SDS011;59391;52.504;13.438;2023-12-28T06:13:01;6.03;;;3.50;;
71562;SDS011;59391;52.504;13.438;2023-12-28T06:15:27;4.83;;;3.10;;
71562;SDS011;59391;52.504;13.438;2023-12-28T06:17:53;5.43;;;3.20;;
71562;SDS011;59391;52.504;13.438;2023-12-28T06:20:18;5.75;;;3.05;;
71562;SDS011;59391;52.504;13.438;2023-12-28T06:22:44;5.15;;;3.05;;
71562;SDS011;59391;52.504;13.438;2023-12-28T06:25:13;4.30;;;3.10;;
71562;SDS011;59391;52.504;13.438;2023-12-28T06:27:39;5.75;;;3.10;;
71562;SDS011;59391;52.504;13.438;2023-12-28T06:30:05;5.77;;;3.40;;
71562;SDS011;59391;52.504;13.438;2023-12-28T06:32:31;5.93;;;3.50;;
71562;SDS011;59391;52.504;13.438;2023-12-28T06:34:57;4.70;;;3.23;;
71562;SDS011;59391;52.504;13.438;2023-12-28T06:37:22;5.45;;;3.42;;
71562;SDS011;59391;52.504;13.438;2023-12-28T06:39:48;5.40;;;3.40;;
71562;SDS011;59391;52.504;13.438;2023-12-28T06:42:14;5.03;;;3.00;;
71562;SDS011;59391;52.504;13.438;2023-12-28T06:44:40;5.63;;;3.20;;
71562;SDS011;59391;52.504;13.438;2023-12-28T06:47:05;5.75;;;3.08;;
71562;SDS011;59391;52.504;13.438;2023-12-28T06:49:31;6.13;;;3.50;;
71562;SDS011;59391;52.504;13.438;2023-12-28T06:51:57;5.30;;;3.40;;
71562;SDS011;59391;52.504;13.438;2023-12-28T06:54:22;6.00;;;3.27;;
71562;SDS011;59391;52.504;13.438;2023-12-28T06:56:49;5.63;;;3.38;;
71562;SDS011;59391;52.504;13.438;2023-12-28T06:59:16;5.75;;;3.70;;
71562;SDS011;59391;52.504;13.438;2023-12-28T07:01:42;6.67;;;3.40;;
71562;SDS011;59391;52.504;13.438;2023-12-28T07:04:09;6.03;;;3.63;;
71562;SDS011;59391;52.504;13.438;2023-12-28T07:06:34;5.75;;;3.40;;
71562;SDS011;59391;52.504;13.438;2023-12-28T07:09:00;8.33;;;3.30;;
71562;SDS011;59391;52.504;13.438;2023-12-28T07:11:27;6.28;;;3.53;;
71562;SDS011;59391;52.504;13.438;2023-12-28T07:13:52;6.03;;;3.80;;
71562;SDS011;59391;52.504;13.438;2023-12-28T07:16:18;6.17;;;3.30;;
71562;SDS011;59391;52.504;13.438;2023-12-28T07:18:44;7.30;;;3.88;;
71562;SDS011;59391;52.504;13.438;2023-12-28T07:21:10;5.63;;;3.53;;
71562;SDS011;59391;52.504;13.438;2023-12-28T07:23:36;5.95;;;3.55;;
71562;SDS011;59391;52.504;13.438;2023-12-28T07:26:02;5.85;;;3.60;;
71562;SDS011;59391;52.504;13.438;2023-12-28T07:28:28;6.85;;;3.92;;
71562;SDS011;59391;52.504;13.438;2023-12-28T07:30:54;4.88;;;3.38;;
71562;SDS011;59391;52.504;13.438;2023-12-28T07:33:20;5.18;;;3.50;;
71562;SDS011;59391;52.504;13.438;2023-12-28T07:35:46;6.43;;;3.40;;
71562;SDS011;59391;52.504;13.438;2023-12-28T07:38:12;5.80;;;3.80;;
71562;SDS011;59391;52.504;13.438;2023-12-28T07:40:38;7.03;;;3.88;;
71562;SDS011;59391;52.504;13.438;2023-12-28T07:43:03;6.37;;;3.90;;
71562;SDS011;59391;52.504;13.438;2023-12-28T07:45:30;5.28;;;3.67;;
71562;SDS011;59391;52.504;13.438;2023-12-28T07:47:56;5.75;;;3.60;;
71562;SDS011;59391;52.504;13.438;2023-12-28T07:50:23;5.93;;;3.22;;
71562;SDS011;59391;52.504;13.438;2023-12-28T07:52:49;6.00;;;3.57;;
71562;SDS011;59391;52.504;13.438;2023-12-28T07:55:15;5.72;;;3.70;;
71562;SDS011;59391;52.504;13.438;2023-12-28T07:57:41;5.37;;;3.70;;
71562;SDS011;59391;52.504;13.438;2023-12-28T08:00:07;5.70;;;3.47;;
71562;SDS011;59391;52.504;13.438;2023-12-28T08:02:34;5.55;;;3.60;;
71562;SDS011;59391;52.504;13.438;2023-12-28T08:05:00;6.07;;;3.50;;
71562;SDS011;59391;52.504;13.438;2023-12-28T08:07:25;5.90;;;3.45;;
71562;SDS011;59391;52.504;13.438;2023-12-28T08:09:51;6.28;;;3.35;;
71562;SDS011;59391;52.504;13.438;2023-12-28T08:12:17;6.03;;;3.70;;
71562;SDS011;59391;52.504;13.438;2023-12-28T08:14:43;6.50;;;3.40;;
71562;SDS011;59391;52.504;13.438;2023-12-28T08:17:09;6.93;;;3.93;;
71562;SDS011;59391;52.504;13.438;2023-12-28T08:19:34;6.13;;;3.42;;
71562;SDS011;59391;52.504;13.438;2023-12-28T08:22:00;7.27;;;4.27;;
71562;SDS011;59391;52.504;13.438;2023-12-28T08:24:27;6.00;;;3.90;;
71562;SDS011;59391;52.504;13.438;2023-12-28T08:26:53;6.60;;;3.97;;
71562;SDS011;59391;52.504;13.438;2023-12-28T08:29:19;6.40;;;3.97;;
71562;SDS011;59391;52.504;13.438;2023-12-28T08:31:45;6.37;;;4.40;;
71562;SDS011;59391;52.504;13.438;2023-12-28T08:34:10;8.05;;;4.43;;
71562;SDS011;59391;52.504;13.438;2023-12-28T08:36:36;7.50;;;4.50;;
71562;SDS011;59391;52.504;13.438;2023-12-28T08:39:02;6.10;;;4.23;;
71562;SDS011;59391;52.504;13.438;2023-12-28T08:41:28;9.90;;;5.28;;
71562;SDS011;59391;52.504;13.438;2023-12-28T08:43:54;8.02;;;5.00;;
71562;SDS011;59391;52.504;13.438;2023-12-28T08:46:20;7.77;;;4.57;;
71562;SDS011;59391;52.504;13.438;2023-12-28T08:48:47;7.65;;;4.72;;
71562;SDS011;59391;52.504;13.438;2023-12-28T08:51:13;8.20;;;4.80;;
71562;SDS011;59391;52.504;13.438;2023-12-28T08:53:40;7.15;;;4.32;;
71562;SDS011;59391;52.504;13.438;2023-12-28T08:56:13;9.13;;;5.68;;
71562;SDS011;59391;52.504;13.438;2023-12-28T08:58:46;18.20;;;8.57;;
71562;SDS011;59391;52.504;13.438;2023-12-28T09:01:16;16.00;;;7.17;;
71562;SDS011;59391;52.504;13.438;2023-12-28T09:03:50;10.63;;;5.88;;
71562;SDS011;59391;52.504;13.438;2023-12-28T09:06:18;9.88;;;5.32;;
71562;SDS011;59391;52.504;13.438;2023-12-28T09:08:45;16.45;;;8.50;;
71562;SDS011;59391;52.504;13.438;2023-12-28T09:11:13;9.00;;;4.60;;
71562;SDS011;59391;52.504;13.438;2023-12-28T09:13:40;8.23;;;4.33;;
71562;SDS011;59391;52.504;13.438;2023-12-28T09:16:07;7.07;;;4.20;;
71562;SDS011;59391;52.504;13.438;2023-12-28T09:18:35;10.20;;;5.38;;
71562;SDS011;59391;52.504;13.438;2023-12-28T09:21:05;8.50;;;4.85;;
71562;SDS011;59391;52.504;13.438;2023-12-28T09:23:35;8.00;;;4.20;;
71562;SDS011;59391;52.504;13.438;2023-12-28T09:26:02;8.17;;;4.57;;
71562;SDS011;59391;52.504;13.438;2023-12-28T09:28:29;7.53;;;4.35;;
71562;SDS011;59391;52.504;13.438;2023-12-28T09:30:56;7.90;;;5.05;;
71562;SDS011;59391;52.504;13.438;2023-12-28T09:33:22;10.35;;;5.28;;
71562;SDS011;59391;52.504;13.438;2023-12-28T09:36:08;9.57;;;4.60;;
71562;SDS011;59391;52.504;13.438;2023-12-28T09:38:53;8.63;;;5.38;;
71562;SDS011;59391;52.504;13.438;2023-12-28T09:41:31;9.82;;;5.22;;
71562;SDS011;59391;52.504;13.438;2023-12-28T09:44:20;8.00;;;4.68;;
71562;SDS011;59391;52.504;13.438;2023-12-28T09:46:56;10.55;;;6.00;;
71562;SDS011;59391;52.504;13.438;2023-12-28T09:55:44;8.98;;;4.93;;
71562;SDS011;59391;52.504;13.438;2023-12-28T09:58:42;7.53;;;4.68;;
71562;SDS011;59391;52.504;13.438;2023-12-28T10:01:18;9.02;;;5.28;;
71562;SDS011;59391;52.504;13.438;2023-12-28T10:03:51;9.17;;;5.60;;
71562;SDS011;59391;52.504;13.438;2023-12-28T10:06:39;13.43;;;6.90;;
71562;SDS011;59391;52.504;13.438;2023-12-28T10:09:13;10.02;;;5.47;;
71562;SDS011;59391;52.504;13.438;2023-12-28T10:18:28;10.10;;;6.32;;
71562;SDS011;59391;52.504;13.438;2023-12-28T10:21:28;16.48;;;7.55;;
71562;SDS011;59391;52.504;13.438;2023-12-28T10:23:54;9.23;;;5.20;;
71562;SDS011;59391;52.504;13.438;2023-12-28T10:26:22;11.27;;;5.45;;
71562;SDS011;59391;52.504;13.438;2023-12-28T10:28:49;10.27;;;5.82;;
71562;SDS011;59391;52.504;13.438;2023-12-28T10:31:22;7.55;;;4.65;;
71562;SDS011;59391;52.504;13.438;2023-12-28T10:34:03;8.13;;;5.32;;
71562;SDS011;59391;52.504;13.438;2023-12-28T10:36:49;8.47;;;4.90;;
71562;SDS011;59391;52.504;13.438;2023-12-28T10:39:24;9.85;;;4.65;;
71562;SDS011;59391;52.504;13.438;2023-12-28T10:42:02;7.78;;;4.78;;
71562;SDS011;59391;52.504;13.438;2023-12-28T10:44:44;8.80;;;4.82;;
71562;SDS011;59391;52.504;13.438;2023-12-28T10:47:39;9.57;;;4.80;;
71562;SDS011;59391;52.504;13.438;2023-12-28T10:50:15;9.47;;;5.37;;
71562;SDS011;59391;52.504;13.438;2023-12-28T10:52:46;8.43;;;4.95;;
71562;SDS011;59391;52.504;13.438;2023-12-28T10:55:33;7.97;;;4.95;;
71562;SDS011;59391;52.504;13.438;2023-12-28T10:58:17;9.23;;;5.20;;
71562;SDS011;59391;52.504;13.438;2023-12-28T11:01:05;6.97;;;4.43;;
71562;SDS011;59391;52.504;13.438;2023-12-28T11:03:37;11.33;;;5.97;;
71562;SDS011;59391;52.504;13.438;2023-12-28T11:06:05;8.05;;;4.85;;
71562;SDS011;59391;52.504;13.438;2023-12-28T11:08:33;8.10;;;4.70;;
71562;SDS011;59391;52.504;13.438;2023-12-28T11:11:01;6.88;;;4.50;;
71562;SDS011;59391;52.504;13.438;2023-12-28T11:13:29;8.55;;;4.55;;
71562;SDS011;59391;52.504;13.438;2023-12-28T11:15:58;6.47;;;4.20;;
71562;SDS011;59391;52.504;13.438;2023-12-28T11:18:25;6.25;;;4.20;;
71562;SDS011;59391;52.504;13.438;2023-12-28T11:20:53;6.13;;;4.57;;
71562;SDS011;59391;52.504;13.438;2023-12-28T11:23:19;12.38;;;4.72;;
71562;SDS011;59391;52.504;13.438;2023-12-28T11:25:48;7.32;;;4.18;;
71562;SDS011;59391;52.504;13.438;2023-12-28T11:28:14;7.80;;;4.20;;
71562;SDS011;59391;52.504;13.438;2023-12-28T11:30:41;8.60;;;4.35;;
71562;SDS011;59391;52.504;13.438;2023-12-28T11:33:07;7.30;;;3.80;;
71562;SDS011;59391;52.504;13.438;2023-12-28T11:35:38;7.40;;;3.92;;
71562;SDS011;59391;52.504;13.438;2023-12-28T11:38:08;7.38;;;4.22;;
71562;SDS011;59391;52.504;13.438;2023-12-28T11:40:40;8.57;;;4.50;;
71562;SDS011;59391;52.504;13.438;2023-12-28T11:43:20;6.53;;;3.95;;
71562;SDS011;59391;52.504;13.438;2023-12-28T11:45:54;7.10;;;4.00;;
71562;SDS011;59391;52.504;13.438;2023-12-28T11:48:24;7.40;;;4.25;;
71562;SDS011;59391;52.504;13.438;2023-12-28T11:50:53;6.57;;;4.10;;
71562;SDS011;59391;52.504;13.438;2023-12-28T11:53:22;6.45;;;4.18;;
71562;SDS011;59391;52.504;13.438;2023-12-28T11:55:49;7.53;;;4.13;;
71562;SDS011;59391;52.504;13.438;2023-12-28T11:58:16;6.57;;;3.97;;
71562;SDS011;59391;52.504;13.438;2023-12-28T12:00:43;6.32;;;3.92;;
71562;SDS011;59391;52.504;13.438;2023-12-28T12:03:12;7.38;;;4.25;;
71562;SDS011;59391;52.504;13.438;2023-12-28T12:05:38;7.90;;;4.35;;
71562;SDS011;59391;52.504;13.438;2023-12-28T12:08:05;5.78;;;3.97;;
71562;SDS011;59391;52.504;13.438;2023-12-28T12:10:33;9.88;;;5.47;;
71562;SDS011;59391;52.504;13.438;2023-12-28T12:13:00;8.18;;;4.80;;
71562;SDS011;59391;52.504;13.438;2023-12-28T12:15:27;7.50;;;4.10;;
71562;SDS011;59391;52.504;13.438;2023-12-28T12:17:54;7.07;;;4.40;;
71562;SDS011;59391;52.504;13.438;2023-12-28T12:20:20;10.20;;;5.47;;
71562;SDS011;59391;52.504;13.438;2023-12-28T12:22:46;8.57;;;4.00;;
71562;SDS011;59391;52.504;13.438;2023-12-28T12:25:12;6.68;;;3.78;;
71562;SDS011;59391;52.504;13.438;2023-12-28T12:27:38;8.27;;;4.43;;
71562;SDS011;59391;52.504;13.438;2023-12-28T12:30:04;7.38;;;4.13;;
71562;SDS011;59391;52.504;13.438;2023-12-28T12:32:30;5.38;;;3.40;;
71562;SDS011;59391;52.504;13.438;2023-12-28T12:34:56;10.38;;;5.18;;
71562;SDS011;59391;52.504;13.438;2023-12-28T12:37:22;17.63;;;9.15;;
71562;SDS011;59391;52.504;13.438;2023-12-28T12:39:49;8.37;;;4.80;;
71562;SDS011;59391;52.504;13.438;2023-12-28T12:42:15;15.68;;;6.45;;
71562;SDS011;59391;52.504;13.438;2023-12-28T12:44:41;10.70;;;4.97;;
71562;SDS011;59391;52.504;13.438;2023-12-28T12:47:07;6.13;;;3.60;;
71562;SDS011;59391;52.504;13.438;2023-12-28T12:49:33;9.20;;;5.30;;
71562;SDS011;59391;52.504;13.438;2023-12-28T12:52:00;10.10;;;5.43;;
71562;SDS011;59391;52.504;13.438;2023-12-28T12:54:26;7.68;;;4.13;;
71562;SDS011;59391;52.504;13.438;2023-12-28T12:56:53;20.52;;;8.85;;
71562;SDS011;59391;52.504;13.438;2023-12-28T12:59:19;6.40;;;3.67;;
71562;SDS011;59391;52.504;13.438;2023-12-28T13:01:47;5.95;;;3.30;;
71562;SDS011;59391;52.504;13.438;2023-12-28T13:04:17;7.20;;;3.80;;
71562;SDS011;59391;52.504;13.438;2023-12-28T13:06:43;6.97;;;3.87;;
71562;SDS011;59391;52.504;13.438;2023-12-28T13:09:08;6.00;;;3.70;;
71562;SDS011;59391;52.504;13.438;2023-12-28T13:11:36;6.38;;;3.60;;
71562;SDS011;59391;52.504;13.438;2023-12-28T13:14:02;6.45;;;3.65;;
71562;SDS011;59391;52.504;13.438;2023-12-28T13:16:29;5.85;;;3.63;;
71562;SDS011;59391;52.504;13.438;2023-12-28T13:18:55;7.65;;;4.28;;
71562;SDS011;59391;52.504;13.438;2023-12-28T13:21:21;11.05;;;5.57;;
71562;SDS011;59391;52.504;13.438;2023-12-28T13:23:47;8.33;;;4.37;;
71562;SDS011;59391;52.504;13.438;2023-12-28T13:26:13;6.20;;;3.78;;
71562;SDS011;59391;52.504;13.438;2023-12-28T13:28:39;6.07;;;3.80;;
71562;SDS011;59391;52.504;13.438;2023-12-28T13:31:04;11.43;;;5.18;;
71562;SDS011;59391;52.504;13.438;2023-12-28T13:33:30;10.10;;;4.95;;
71562;SDS011;59391;52.504;13.438;2023-12-28T13:35:56;8.20;;;4.57;;
71562;SDS011;59391;52.504;13.438;2023-12-28T13:38:23;10.18;;;4.78;;
71562;SDS011;59391;52.504;13.438;2023-12-28T13:40:48;6.90;;;3.93;;
71562;SDS011;59391;52.504;13.438;2023-12-28T13:43:14;7.43;;;4.30;;
71562;SDS011;59391;52.504;13.438;2023-12-28T13:45:40;9.53;;;5.17;;
71562;SDS011;59391;52.504;13.438;2023-12-28T13:48:05;6.63;;;3.70;;
71562;SDS011;59391;52.504;13.438;2023-12-28T13:50:32;7.65;;;4.15;;
71562;SDS011;59391;52.504;13.438;2023-12-28T13:52:58;8.10;;;4.60;;
71562;SDS011;59391;52.504;13.438;2023-12-28T13:55:23;7.10;;;4.03;;
71562;SDS011;59391;52.504;13.438;2023-12-28T13:57:49;13.38;;;5.80;;
71562;SDS011;59391;52.504;13.438;2023-12-28T14:00:15;6.77;;;3.80;;
71562;SDS011;59391;52.504;13.438;2023-12-28T14:02:41;10.07;;;4.65;;
71562;SDS011;59391;52.504;13.438;2023-12-28T14:05:06;7.13;;;3.77;;
71562;SDS011;59391;52.504;13.438;2023-12-28T14:07:32;8.68;;;4.57;;
71562;SDS011;59391;52.504;13.438;2023-12-28T14:09:58;7.25;;;3.90;;
71562;SDS011;59391;52.504;13.438;2023-12-28T14:12:24;6.67;;;3.73;;
71562;SDS011;59391;52.504;13.438;2023-12-28T14:14:49;7.70;;;4.13;;
71562;SDS011;59391;52.504;13.438;2023-12-28T14:17:15;9.05;;;4.22;;
71562;SDS011;59391;52.504;13.438;2023-12-28T14:19:44;8.00;;;4.30;;
71562;SDS011;59391;52.504;13.438;2023-12-28T14:22:11;9.57;;;4.55;;
71562;SDS011;59391;52.504;13.438;2023-12-28T14:24:38;10.50;;;4.40;;
71562;SDS011;59391;52.504;13.438;2023-12-28T14:27:04;7.05;;;3.80;;
71562;SDS011;59391;52.504;13.438;2023-12-28T14:29:30;6.68;;;4.10;;
71562;SDS011;59391;52.504;13.438;2023-12-28T14:31:56;8.27;;;4.03;;
71562;SDS011;59391;52.504;13.438;2023-12-28T14:34:22;6.77;;;4.00;;
71562;SDS011;59391;52.504;13.438;2023-12-28T14:36:48;7.07;;;4.32;;
71562;SDS011;59391;52.504;13.438;2023-12-28T14:39:17;6.25;;;3.80;;
71562;SDS011;59391;52.504;13.438;2023-12-28T14:41:44;21.77;;;11.85;;
71562;SDS011;59391;52.504;13.438;2023-12-28T14:44:10;11.45;;;6.60;;
71562;SDS011;59391;52.504;13.438;2023-12-28T14:46:36;6.90;;;4.47;;